No particular awareness of the weather is required.    There are no Weather-warnings

Οι άλλοι ιστότοποί μου:

SYKIA HOMEWEATHERSTATIONsikeaweather.alinos.eu

SYKIA METEOTEMPLATEsykiameteo.alinos.eu

alinos.eualinos.eu



Αναφορές γειτονικών METAR

   
LGEL - Elefsis (hel-Afb, Greece
Απόσταση από τον σταθμό: Α 77 km
Ενημερώθηκε: 23-10-2019 16:50
Αίθριος  
Αίθριος  
   Ανεμος: ΒΒΔ 22.2 km/h<br />Gust to 22.2 km/h
Ανεμος: ΒΒΔ 22.2 km/h
Gust to 22.2 km/h
Θερμοκρασία: 25°C
Σημείο Δρόσου: 11°C
Υγρασία: 42%
Βαρόμετρο: 1016 hPa
Ορατότητα: More than 10 km
Στοιχεία νεφών: Αίθριος
LGEL 231350Z 34012G24KT CAVOK 25/11 Q1016
LGRX - Araxos (civ/Afb), Greece
Απόσταση από τον σταθμό: Δ 110 km
Ενημερώθηκε: 23-10-2019 16:50
Αίθριος  
Αίθριος  
   Ανεμος: ΒΑ 25.9 km/h
Ανεμος: ΒΑ 25.9 km/h
Θερμοκρασία: 26°C
Σημείο Δρόσου: 9°C
Υγρασία: 34%
Βαρόμετρο: 1017 hPa
Ορατότητα: More than 10 km
Στοιχεία νεφών: Αίθριος
LGRX 231350Z 04014KT CAVOK 26/09 Q1017
LGAV - Athens/Elef-Ven, Greece
Απόσταση από τον σταθμό: Α 113 km
Ενημερώθηκε: 23-10-2019 16:50
Αίθριος  
Αίθριος  
   Ανεμος: ΒΑ 29.6 km/h
Ανεμος: ΒΑ 29.6 km/h
Θερμοκρασία: 23°C
Σημείο Δρόσου: 12°C
Υγρασία: 50%
Βαρόμετρο: 1017 hPa
Ορατότητα: More than 10 km
Στοιχεία νεφών: Αίθριος
LGAV 231350Z 05016KT CAVOK 23/12 Q1017 NOSIG
LGAD - Andravida (civ/A, Greece
Απόσταση από τον σταθμό: Δ 124 km
Ενημερώθηκε: 23-10-2019 16:50
Αίθριος  
Αίθριος  
   Ανεμος: ΒΒΑ 16.7 km/h
Ανεμος: ΒΒΑ 16.7 km/h
Θερμοκρασία: 27°C
Σημείο Δρόσου: 8°C
Υγρασία: 30%
Βαρόμετρο: 1016 hPa
Ορατότητα: More than 10 km
Στοιχεία νεφών: Αίθριος
LGAD 231350Z 02009KT CAVOK 27/08 Q1016
LGKL - Kalamata (hel-Af, Greece
Απόσταση από τον σταθμό: ΝΝΔ 124 km
Ενημερώθηκε: 23-10-2019 16:50
Αίθριος  
Αίθριος  
   Ανεμος: ΝΝΑ 14.8 km/h
Ανεμος: ΝΝΑ 14.8 km/h
Θερμοκρασία: 26°C
Σημείο Δρόσου: 11°C
Υγρασία: 39%
Βαρόμετρο: 1016 hPa
Ορατότητα: More than 10 km
Στοιχεία νεφών: Αίθριος
LGKL 231350Z 15008KT CAVOK 26/11 Q1016
LGBL - Nea Anchialos, Greece
Απόσταση από τον σταθμό: Β 129 km
Ενημερώθηκε: 23-10-2019 16:50
Αίθριος  
Αίθριος  
   Ανεμος: Ανατολικά 9.3 km/h
Ανεμος: Ανατολικά 9.3 km/h
Θερμοκρασία: 23°C
Σημείο Δρόσου: 13°C
Υγρασία: 53%
Βαρόμετρο: 1020 hPa
Ορατότητα: More than 10 km
Στοιχεία νεφών: Αίθριος
LGBL 231350Z 09005KT CAVOK 23/13 Q1020

Αρχική γραφή από  Saratoga-weather.org Προσαρμογή στον ιστότοπο από  Weerstation Leuven

Βλέπε επίσης τις ενημερώσεις τού σταθμού μας στα παρακάτω δίκτυα:

European Weather Network

Weather Underground

AWEKAS

Citizen Weather Observer Program (CWOP)

HAMweather, WeatherForYou, PWS Weather

UK Metoffice

Equipment we use:

Μετεωρολογικός σταθμός
Davis Wireless Vantage Pro2

Davis Wireless Vantage Pro2